Terminal Aerodrome Forecast
Issued by NWS Buffalo, NY

Home | Current Version | Previous Version | Text Only | Print | Product List | Glossary On
Versions: 1 2 3 4 5 6 7 8 9 10 11 12 13 14 15 16 17 18 19 20 21 22 23 24 25 26
000
FTUS41 KBUF 202320
TAFBUF
TAF
KBUF 202320Z 2100/2124 23014G22KT P6SM SCT200
     FM210300 21016G24KT P6SM SKC WS020/23045KT
     FM211400 21025G35KT P6SM SCT200
     FM212200 23018G26KT P6SM BKN100=

USA.gov is the U.S. government's official web portal to all federal, state and local government web resources and services.